Naha City, Japan

7:21 PM JST on October 25, 2014 (GMT +0900)
Naha | Change Station
CLOSE
Current Station
Airport
Location: Naha City,
Elevation: 20 ft
Nearby Weather Stations

Elev 20 ft 26.20 °N, 127.65 °E | Updated 21 minutes ago

Scattered Clouds
Scattered Clouds
79 °F
Feels Like 79 °F
N
5
Wind Variable Wind from SSE

Today
High -- | Low -- °F
--% Chance of Precip.
Yesterday
High -- | Low -- °F
Precip. -- in
6:33 AM 5:53 PM
New Moon, 2% visible
Pressure 30.04 in
Visibility 6.2 miles
Clouds Few 2500 ft
Scattered Clouds 6000 ft
Dew Point 70 °F
Humidity 74%
Rainfall 0.00 in
Snow Depth Not available.
UV 0 out of 12
Pollen Not available.
Air Quality Not available.
Flu Activity Not available.
METAR ROAH 251000Z 15004KT 9999 FEW025 SCT060 BKN/// 26/21 Q1017 RMK 1CU025 3SC060 A3005

More Conditions Fewer Conditions

Pressure 30.04 in
Visibility 6.2 miles
Clouds Few 2500 ft
Scattered Clouds 6000 ft
Dew Point 70 °F
Humidity 74%
Rainfall 0.00 in
Snow Depth Not available.
UV 0 out of 12
Pollen Not available.
Air Quality Not available.
Flu Activity Not available.
METAR ROAH 251000Z 15004KT 9999 FEW025 SCT060 BKN/// 26/21 Q1017 RMK 1CU025 3SC060 A3005

More Conditions Fewer Conditions

10-Day Weather Forecast

Almanac

Astronomy

Oct. 25, 2014 Rise Set
Actual Time 6:33 AM JST 5:53 PM JST
Civil Twilight 6:10 AM JST 6:16 PM JST
Nautical Twilight 5:43 AM JST 6:43 PM JST
Astronomical Twilight 5:16 AM JST 7:10 PM JST
Moon 7:31 AM JST 6:55 PM JST
Length of Visible Light 12h 06m
Length of Day
11h 19m
Tomorrow will be 1m 25s shorter.
New Moon, 2% of the Moon is Illuminated
Today
New Moon
Oct 30
First Quarter
Nov 6
Full
Nov 14
Last Quarter
Nov 22
New

Yesterday's Extremes

Country Highs Country Lows

Community

WunderPhotos

Upload Photos

1,764,806 photos uploaded!

Nearby

Snow Depth

Not available.

Earthquake Activity

City Distance Mag. Time & Date
No recent earthquake activity has been reported nearby.
Minimum magnitude displayed is 2.5.

Coastal Water Temperatures

Place Temperature
No Stations Reporting

Nearby Weather Stations